Terminal Aerodrome Forecast
Issued by NWS Omaha/Valley, NE

Home | Current Version | Previous Version | Text Only | Print | Product List | Glossary On
Versions: 1 2 3 4 5 6 7 8 9 10 11 12 13 14 15 16 17 18 19 20 21 22 23 24 25 26
472
FTUS43 KOAX 260520
TAFOFK
TAF
KOFK 260520Z 2606/2706 16005KT P6SM OVC120
     FM260700 30004KT P6SM BKN080
     FM261200 32010G19KT P6SM BKN200
     FM261800 34007KT P6SM FEW250=

USA.gov is the U.S. government's official web portal to all federal, state and local government web resources and services.